Time;durP1;ratioP1;P1;durP2;ratioP2;P2;SDS_P1;SDS_P2;PMS_P1;PMS_P2;Temp;Humidity;BMP_temperature;BMP_pressure;BME280_temperature;BME280_humidity;BME280_pressure;Samples;Min_cycle;Max_cycle;Signal;HPM_P1;HPM_P2
2023/10/11 00:01:39;;;;;;;;;;;;;;;;;;5117144;28;20010;-68
2023/10/11 00:04:23;;;;;;;;;;;;;;;;;;5098764;28;19924;-68
2023/10/11 00:06:49;;;;;;;;;;;;;;;;;;5116833;28;19989;-68
2023/10/11 00:09:16;;;;;;;;;;;;;;;;;;5116806;28;19920;-68
2023/10/11 00:11:41;;;;;;;;;;;;;;;;;;5116739;28;19916;-68
2023/10/11 00:14:07;;;;;;;;;;;;;;;;;;5116736;28;20313;-68
2023/10/11 00:16:35;;;;;;;;;;;;;;;;;;5116528;28;19916;-68
2023/10/11 00:19:00;;;;;;;;;;;;;;;;;;5098121;28;19968;-69
2023/10/11 00:21:49;;;;;;;;;;;;;;;;;;5116430;28;19915;-68
2023/10/11 00:24:11;;;;;;;;;;;;;;;;;;5116220;28;19927;-68
2023/10/11 00:26:40;;;;;;;;;;;;;;;;;;5116718;28;20300;-68
2023/10/11 00:29:05;;;;;;;;;;;;;;;;;;5116327;28;19994;-68
2023/10/11 00:31:35;;;;;;;;;;;;;;;;;;5116116;28;19963;-68
2023/10/11 00:34:03;;;;;;;;;;;;;;;;;;5098452;28;19915;-68
2023/10/11 00:36:32;;;;;;;;;;;;;;;;;;5098097;28;19931;-68
2023/10/11 00:38:57;;;;;;;;;;;;;;;;;;5098194;28;20321;-68
2023/10/11 00:41:25;;;;;;;;;;;;;;;;;;5116167;28;19922;-68
2023/10/11 00:43:52;;;;;;;;;;;;;;;;;;5097764;28;19920;-68
2023/10/11 00:46:19;;;;;;;;;;;;;;;;;;5115981;28;19916;-68
2023/10/11 00:51:19;;;;;;;;;;;;;;;;;;5116269;28;19916;-70
2023/10/11 00:53:44;;;;;;;;;;;;;;;;;;5116273;28;19912;-70
2023/10/11 00:56:10;;;;;;;;;;;;;;;;;;5114769;28;20279;-71
2023/10/11 00:58:38;;;;;;;;;;;;;;;;;;5115685;28;19968;-71
2023/10/11 01:01:03;;;;;;;;;;;;;;;;;;5114467;28;20061;-70
2023/10/11 01:03:32;;;;;;;;;;;;;;;;;;5104466;28;19962;-72
2023/10/11 01:06:00;;;;;;;;;;;;;;;;;;5096221;28;19920;-72
2023/10/11 01:08:26;;;;;;;;;;;;;;;;;;5105816;28;19922;-72
2023/10/11 01:10:53;;;;;;;;;;;;;;;;;;5096564;28;20387;-72
2023/10/11 01:13:19;;;;;;;;;;;;;;;;;;5101706;28;19920;-71
2023/10/11 01:15:44;;;;;;;;;;;;;;;;;;5113683;28;20002;-71
2023/10/11 01:18:12;;;;;;;;;;;;;;;;;;5115045;28;19954;-71
2023/10/11 01:20:39;;;;;;;;;;;;;;;;;;5114979;28;20335;-71
2023/10/11 01:23:04;;;;;;;;;;;;;;;;;;5115277;28;19922;-71
2023/10/11 01:25:30;;;;;;;;;;;;;;;;;;5115326;28;20354;-71
2023/10/11 01:27:55;;;;;;;;;;;;;;;;;;5097231;28;20344;-72
2023/10/11 01:30:20;;;;;;;;;;;;;;;;;;5115816;28;20010;-71
2023/10/11 01:32:47;;;;;;;;;;;;;;;;;;5115471;28;19922;-71
2023/10/11 01:35:13;;;;;;;;;;;;;;;;;;5115475;28;19977;-70
2023/10/11 01:37:43;;;;;;;;;;;;;;;;;;5115597;28;19986;-71
2023/10/11 01:40:08;;;;;;;;;;;;;;;;;;5115312;28;20385;-71
2023/10/11 01:42:34;;;;;;;;;;;;;;;;;;5115163;28;19967;-71
2023/10/11 01:45:00;;;;;;;;;;;;;;;;;;5115508;28;19923;-70
2023/10/11 01:47:26;;;;;;;;;;;;;;;;;;5097026;28;19915;-71
2023/10/11 01:49:52;;;;;;;;;;;;;;;;;;5115259;28;19911;-71
2023/10/11 01:52:18;;;;;;;;;;;;;;;;;;5115207;28;19919;-70
2023/10/11 01:54:43;;;;;;;;;;;;;;;;;;5114878;28;19912;-70
2023/10/11 01:57:10;;;;;;;;;;;;;;;;;;5114869;28;19916;-70
2023/10/11 01:59:35;;;;;;;;;;;;;;;;;;5113768;28;19933;-69
2023/10/11 02:02:03;;;;;;;;;;;;;;;;;;5097049;28;20053;-69
2023/10/11 02:04:31;;;;;;;;;;;;;;;;;;5096557;28;19924;-69
2023/10/11 02:06:59;;;;;;;;;;;;;;;;;;5114911;28;20375;-70
2023/10/11 02:09:25;;;;;;;;;;;;;;;;;;5114838;28;19922;-70
2023/10/11 02:11:54;;;;;;;;;;;;;;;;;;5114704;28;19919;-70
2023/10/11 02:14:20;;;;;;;;;;;;;;;;;;5114930;28;19916;-70
2023/10/11 02:16:45;;;;;;;;;;;;;;;;;;5096507;28;19911;-70
2023/10/11 02:19:15;;;;;;;;;;;;;;;;;;5096504;28;19985;-70
2023/10/11 02:21:43;;;;;;;;;;;;;;;;;;5095621;28;20444;-70
2023/10/11 02:24:09;;;;;;;;;;;;;;;;;;5114465;28;19928;-70
2023/10/11 02:26:34;;;;;;;;;;;;;;;;;;5096229;28;20424;-70
2023/10/11 02:29:10;;;;;;;;;;;;;;;;;;5096248;28;19916;-71
2023/10/11 02:31:38;;;;;;;;;;;;;;;;;;5114854;28;19916;-70
2023/10/11 02:34:12;;;;;;;;;;;;;;;;;;5114570;28;19915;-70
2023/10/11 02:36:38;;;;;;;;;;;;;;;;;;5114345;28;20248;-70
2023/10/11 02:39:06;;;;;;;;;;;;;;;;;;5114296;28;19915;-70
2023/10/11 02:41:31;;;;;;;;;;;;;;;;;;5114237;28;19915;-70
2023/10/11 02:43:57;;;;;;;;;;;;;;;;;;5114269;28;19965;-70
2023/10/11 02:46:23;;;;;;;;;;;;;;;;;;5114328;28;20279;-70
2023/10/11 02:48:48;;;;;;;;;;;;;;;;;;5114224;28;19916;-70
2023/10/11 02:51:15;;;;;;;;;;;;;;;;;;5114040;28;20011;-70
2023/10/11 02:53:43;;;;;;;;;;;;;;;;;;5114062;28;20393;-69
2023/10/11 02:56:09;;;;;;;;;;;;;;;;;;5114256;28;19915;-70
2023/10/11 02:58:38;;;;;;;;;;;;;;;;;;5095789;28;20042;-69
2023/10/11 03:01:10;;;;;;;;;;;;;;;;;;5113878;28;19923;-69
2023/10/11 03:03:38;;;;;;;;;;;;;;;;;;5096046;28;19928;-70
2023/10/11 03:06:07;;;;;;;;;;;;;;;;;;5071542;28;19916;-70
2023/10/11 03:08:33;;;;;;;;;;;;;;;;;;5071433;28;19973;-70
2023/10/11 03:10:58;;;;;;;;;;;;;;;;;;5088363;28;19912;-70
2023/10/11 03:13:30;;;;;;;;;;;;;;;;;;5089746;28;19912;-71
2023/10/11 03:15:55;;;;;;;;;;;;;;;;;;5089572;28;19916;-69
2023/10/11 03:18:22;;;;;;;;;;;;;;;;;;5089550;28;20371;-70
2023/10/11 03:20:50;;;;;;;;;;;;;;;;;;5089456;28;19983;-70
2023/10/11 03:23:20;;;;;;;;;;;;;;;;;;5090039;28;19967;-70
2023/10/11 03:25:49;;;;;;;;;;;;;;;;;;5089386;28;19920;-70
2023/10/11 03:28:15;;;;;;;;;;;;;;;;;;5071390;28;20775;-70
2023/10/11 03:30:40;;;;;;;;;;;;;;;;;;5089178;28;19998;-72
2023/10/11 03:33:09;;;;;;;;;;;;;;;;;;5089380;28;20355;-71
2023/10/11 03:35:38;;;;;;;;;;;;;;;;;;5089070;28;20674;-71
2023/10/11 03:38:06;;;;;;;;;;;;;;;;;;5089756;28;19916;-71
2023/10/11 03:40:34;;;;;;;;;;;;;;;;;;5089157;28;19920;-72
2023/10/11 03:43:01;;;;;;;;;;;;;;;;;;5089620;28;19928;-72
2023/10/11 03:45:27;;;;;;;;;;;;;;;;;;5089192;28;19920;-71
2023/10/11 03:47:52;;;;;;;;;;;;;;;;;;5071092;28;20268;-71
2023/10/11 03:50:25;;;;;;;;;;;;;;;;;;5089305;28;19931;-71
2023/10/11 03:52:50;;;;;;;;;;;;;;;;;;5088603;28;20408;-71
2023/10/11 03:55:16;;;;;;;;;;;;;;;;;;5089107;28;19941;-71
2023/10/11 03:57:42;;;;;;;;;;;;;;;;;;5088050;28;20018;-70
2023/10/11 04:02:48;;;;;;;;;;;;;;;;;;5089197;28;19920;-70
2023/10/11 04:05:13;;;;;;;;;;;;;;;;;;5089334;28;19938;-70
2023/10/11 04:07:40;;;;;;;;;;;;;;;;;;5070790;28;20379;-70
2023/10/11 04:10:09;;;;;;;;;;;;;;;;;;5088819;28;19916;-71
2023/10/11 04:12:38;;;;;;;;;;;;;;;;;;5088496;28;19916;-72
2023/10/11 04:15:15;;;;;;;;;;;;;;;;;;5088970;28;19916;-70
2023/10/11 04:17:41;;;;;;;;;;;;;;;;;;5088926;28;19965;-71
2023/10/11 04:20:29;;;;;;;;;;;;;;;;;;5089033;28;19916;-71
2023/10/11 04:23:09;;;;;;;;;;;;;;;;;;5088882;28;20011;-70
2023/10/11 04:25:37;;;;;;;;;;;;;;;;;;5054067;28;19920;-70
2023/10/11 04:28:05;;;;;;;;;;;;;;;;;;5070591;28;19969;-71
2023/10/11 04:31:23;;;;;;;;;;;;;;;;;;5088696;28;19920;-72
2023/10/11 04:33:22;;;;;;;;;;;;;;;;;;5087317;28;19939;-71
2023/10/11 04:36:02;;;;;;;;;;;;;;;;;;5088726;28;19916;-71
2023/10/11 04:38:32;;;;;;;;;;;;;;;;;;5088470;28;19920;-71
2023/10/11 04:41:02;;;;;;;;;;;;;;;;;;5088619;28;20014;-72
2023/10/11 04:43:29;;;;;;;;;;;;;;;;;;5088644;28;19920;-71
2023/10/11 04:45:55;;;;;;;;;;;;;;;;;;5091692;28;19961;-71
2023/10/11 04:48:30;;;;;;;;;;;;;;;;;;5091630;28;19915;-70
2023/10/11 04:50:55;;;;;;;;;;;;;;;;;;5089882;28;20378;-71
2023/10/11 04:53:22;;;;;;;;;;;;;;;;;;5090073;28;20010;-70
2023/10/11 04:55:51;;;;;;;;;;;;;;;;;;5090264;28;20197;-72
2023/10/11 04:58:51;;;;;;;;;;;;;;;;;;5087090;28;19953;-72
2023/10/11 05:01:10;;;;;;;;;;;;;;;;;;5085181;28;19924;-72
2023/10/11 05:03:37;;;;;;;;;;;;;;;;;;5089770;28;20336;-72
2023/10/11 05:06:12;;;;;;;;;;;;;;;;;;5088792;28;19972;-72
2023/10/11 05:09:02;;;;;;;;;;;;;;;;;;5089224;28;19939;-71
2023/10/11 05:11:39;;;;;;;;;;;;;;;;;;5099563;28;20165;-71
2023/10/11 05:14:26;;;;;;;;;;;;;;;;;;5108126;28;20469;-72
2023/10/11 05:16:58;;;;;;;;;;;;;;;;;;5108460;28;20004;-72
2023/10/11 05:19:23;;;;;;;;;;;;;;;;;;5089449;28;19970;-72
2023/10/11 05:21:52;;;;;;;;;;;;;;;;;;5092521;28;19916;-72
2023/10/11 05:32:32;;;;;;;;;;;;;;;;;;5108898;28;19923;-72
2023/10/11 05:51:26;;;;;;;;;;;;;;;;;;5088955;28;19920;-70
2023/10/11 05:53:52;;;;;;;;;;;;;;;;;;5090176;28;19958;-70
2023/10/11 05:56:20;;;;;;;;;;;;;;;;;;5090247;28;19920;-71
2023/10/11 05:58:46;;;;;;;;;;;;;;;;;;5107882;28;19965;-71
2023/10/11 06:01:13;;;;;;;;;;;;;;;;;;5102725;28;19919;-70
2023/10/11 06:03:39;;;;;;;;;;;;;;;;;;5109196;28;19915;-73
2023/10/11 06:06:10;;;;;;;;;;;;;;;;;;5099984;28;19946;-71
2023/10/11 06:08:38;;;;;;;;;;;;;;;;;;5107508;28;20003;-71
2023/10/11 06:11:08;;;;;;;;;;;;;;;;;;5095060;28;19935;-72
2023/10/11 06:13:33;;;;;;;;;;;;;;;;;;5090652;28;19923;-72
2023/10/11 06:15:59;;;;;;;;;;;;;;;;;;5071534;28;19916;-70
2023/10/11 06:18:39;;;;;;;;;;;;;;;;;;5094695;28;19916;-71
2023/10/11 06:21:05;;;;;;;;;;;;;;;;;;5109665;28;19920;-72
2023/10/11 06:23:31;;;;;;;;;;;;;;;;;;5109424;28;19920;-71
2023/10/11 06:25:59;;;;;;;;;;;;;;;;;;5094077;28;19923;-71
2023/10/11 06:28:30;;;;;;;;;;;;;;;;;;5089583;28;20014;-71
2023/10/11 06:30:56;;;;;;;;;;;;;;;;;;5071273;28;20327;-71
2023/10/11 06:33:22;;;;;;;;;;;;;;;;;;5091124;28;19928;-72
2023/10/11 06:35:49;;;;;;;;;;;;;;;;;;5089340;28;19916;-72
2023/10/11 06:38:14;;;;;;;;;;;;;;;;;;5105592;28;20379;-73
2023/10/11 06:40:46;;;;;;;;;;;;;;;;;;5091047;28;19969;-72
2023/10/11 06:43:12;;;;;;;;;;;;;;;;;;5109937;28;19982;-72
2023/10/11 06:45:40;;;;;;;;;;;;;;;;;;5109415;28;19969;-73
2023/10/11 06:48:08;;;;;;;;;;;;;;;;;;5109439;28;20015;-73
2023/10/11 06:50:35;;;;;;;;;;;;;;;;;;5109239;28;20014;-73
2023/10/11 06:53:03;;;;;;;;;;;;;;;;;;5109660;28;19916;-73
2023/10/11 06:55:28;;;;;;;;;;;;;;;;;;5109972;28;19951;-73
2023/10/11 06:57:54;;;;;;;;;;;;;;;;;;5109333;28;19962;-73
2023/10/11 07:00:36;;;;;;;;;;;;;;;;;;5103980;28;19916;-73
2023/10/11 07:05:49;;;;;;;;;;;;;;;;;;5109109;28;19942;-72
2023/10/11 07:08:20;;;;;;;;;;;;;;;;;;5105518;28;19916;-72
2023/10/11 07:10:46;;;;;;;;;;;;;;;;;;5106737;28;19996;-72
2023/10/11 07:13:13;;;;;;;;;;;;;;;;;;5108719;28;19916;-73
2023/10/11 07:15:38;;;;;;;;;;;;;;;;;;5107688;28;20034;-72
2023/10/11 07:18:08;;;;;;;;;;;;;;;;;;5108464;28;20003;-72
2023/10/11 07:20:48;;;;;;;;;;;;;;;;;;5106721;28;19923;-73
2023/10/11 07:23:18;;;;;;;;;;;;;;;;;;5107535;28;20038;-73
2023/10/11 07:25:45;;;;;;;;;;;;;;;;;;5106576;28;19920;-73
2023/10/11 07:28:14;;;;;;;;;;;;;;;;;;5107331;28;19918;-73
2023/10/11 07:30:39;;;;;;;;;;;;;;;;;;5100826;28;19919;-73
2023/10/11 07:33:05;;;;;;;;;;;;;;;;;;5086193;28;19942;-73
2023/10/11 07:35:30;;;;;;;;;;;;;;;;;;5086474;28;20290;-73
2023/10/11 07:37:56;;;;;;;;;;;;;;;;;;5086662;28;20266;-74
2023/10/11 07:40:33;;;;;;;;;;;;;;;;;;5086678;28;19916;-74
2023/10/11 07:42:58;;;;;;;;;;;;;;;;;;5098344;28;19942;-74
2023/10/11 07:45:26;;;;;;;;;;;;;;;;;;5106726;28;20375;-73
2023/10/11 07:47:52;;;;;;;;;;;;;;;;;;5106743;28;19916;-73
2023/10/11 07:50:24;;;;;;;;;;;;;;;;;;5107224;28;20337;-74
2023/10/11 07:52:49;;;;;;;;;;;;;;;;;;5104465;28;20291;-73
2023/10/11 07:55:17;;;;;;;;;;;;;;;;;;5095191;28;19927;-73
2023/10/11 07:57:46;;;;;;;;;;;;;;;;;;5088071;28;19920;-73
2023/10/11 08:00:17;;;;;;;;;;;;;;;;;;5102077;28;19919;-73
2023/10/11 08:02:42;;;;;;;;;;;;;;;;;;5106456;28;20023;-73
2023/10/11 08:05:12;;;;;;;;;;;;;;;;;;5106630;28;20038;-73
2023/10/11 08:07:37;;;;;;;;;;;;;;;;;;5106685;28;19972;-73
2023/10/11 08:10:29;;;;;;;;;;;;;;;;;;5106696;28;19912;-73
2023/10/11 08:12:48;;;;;;;;;;;;;;;;;;5105629;28;19953;-73
2023/10/11 08:15:19;;;;;;;;;;;;;;;;;;5103355;28;19949;-72
2023/10/11 08:17:44;;;;;;;;;;;;;;;;;;5096361;28;19912;-73
2023/10/11 08:20:15;;;;;;;;;;;;;;;;;;5075438;28;19923;-72
2023/10/11 08:22:40;;;;;;;;;;;;;;;;;;5071150;28;19934;-72
2023/10/11 08:25:12;;;;;;;;;;;;;;;;;;5090819;28;19924;-72
2023/10/11 08:27:37;;;;;;;;;;;;;;;;;;5098560;28;20296;-72
2023/10/11 08:30:09;;;;;;;;;;;;;;;;;;5090217;28;19916;-72
2023/10/11 08:32:38;;;;;;;;;;;;;;;;;;5089185;28;19923;-72
2023/10/11 08:35:04;;;;;;;;;;;;;;;;;;5054291;28;19923;-72
2023/10/11 08:37:32;;;;;;;;;;;;;;;;;;5089639;28;19920;-72
2023/10/11 08:39:57;;;;;;;;;;;;;;;;;;5089494;28;19920;-72
2023/10/11 08:42:26;;;;;;;;;;;;;;;;;;5095546;28;20015;-71
2023/10/11 08:44:54;;;;;;;;;;;;;;;;;;5105965;28;19924;-72
2023/10/11 08:47:19;;;;;;;;;;;;;;;;;;5088922;28;19916;-73
2023/10/11 08:49:51;;;;;;;;;;;;;;;;;;5087872;28;19943;-73
2023/10/11 08:52:17;;;;;;;;;;;;;;;;;;5077477;28;19915;-72
2023/10/11 08:54:43;;;;;;;;;;;;;;;;;;5109289;28;20500;-73
2023/10/11 08:57:12;;;;;;;;;;;;;;;;;;5108657;28;20115;-72
2023/10/11 08:59:44;;;;;;;;;;;;;;;;;;5108761;28;19923;-73
2023/10/11 09:02:10;;;;;;;;;;;;;;;;;;5109288;28;19916;-73
2023/10/11 09:04:36;;;;;;;;;;;;;;;;;;5109023;28;19912;-73
2023/10/11 09:07:01;;;;;;;;;;;;;;;;;;5107729;28;19916;-73
2023/10/11 09:09:26;;;;;;;;;;;;;;;;;;5108995;28;20015;-73
2023/10/11 09:11:52;;;;;;;;;;;;;;;;;;5109237;28;20046;-72
2023/10/11 09:14:23;;;;;;;;;;;;;;;;;;5109845;28;20456;-73
2023/10/11 09:16:49;;;;;;;;;;;;;;;;;;5109745;28;19920;-72
2023/10/11 09:19:19;;;;;;;;;;;;;;;;;;5109072;28;19922;-72
2023/10/11 09:21:46;;;;;;;;;;;;;;;;;;5109715;28;20283;-72
2023/10/11 09:24:13;;;;;;;;;;;;;;;;;;5108851;28;20522;-72
2023/10/11 09:26:38;;;;;;;;;;;;;;;;;;5109138;28;20037;-72
2023/10/11 09:29:04;;;;;;;;;;;;;;;;;;5108961;28;20006;-72
2023/10/11 09:31:31;;;;;;;;;;;;;;;;;;5108147;28;19916;-72
2023/10/11 09:33:59;;;;;;;;;;;;;;;;;;5108802;28;19919;-73
2023/10/11 09:36:25;;;;;;;;;;;;;;;;;;5109266;28;20028;-72
2023/10/11 09:38:56;;;;;;;;;;;;;;;;;;5108487;28;20397;-73
2023/10/11 09:41:22;;;;;;;;;;;;;;;;;;5108570;28;20606;-73
2023/10/11 09:43:47;;;;;;;;;;;;;;;;;;5107938;28;19918;-72
2023/10/11 09:46:13;;;;;;;;;;;;;;;;;;5107309;28;20003;-72
2023/10/11 09:48:38;;;;;;;;;;;;;;;;;;5108839;28;19973;-72
2023/10/11 09:51:07;;;;;;;;;;;;;;;;;;5108901;28;19923;-73
2023/10/11 09:53:33;;;;;;;;;;;;;;;;;;5107655;28;19916;-72
2023/10/11 09:55:58;;;;;;;;;;;;;;;;;;5108357;28;19919;-72
2023/10/11 09:58:23;;;;;;;;;;;;;;;;;;5108221;28;19923;-72
2023/10/11 10:00:50;;;;;;;;;;;;;;;;;;5108717;28;20345;-73
2023/10/11 10:03:16;;;;;;;;;;;;;;;;;;5108541;28;19915;-73
2023/10/11 10:05:41;;;;;;;;;;;;;;;;;;5108705;28;20474;-73
2023/10/11 10:08:07;;;;;;;;;;;;;;;;;;5107017;28;19922;-72
2023/10/11 10:10:32;;;;;;;;;;;;;;;;;;5108374;28;20359;-72
2023/10/11 10:12:57;;;;;;;;;;;;;;;;;;5108290;28;19928;-72
2023/10/11 10:15:23;;;;;;;;;;;;;;;;;;5108793;28;19908;-72
2023/10/11 10:17:48;;;;;;;;;;;;;;;;;;5108417;28;20298;-73
2023/10/11 10:20:13;;;;;;;;;;;;;;;;;;5107779;28;19948;-72
2023/10/11 10:22:42;;;;;;;;;;;;;;;;;;5107796;28;19961;-73
2023/10/11 10:25:08;;;;;;;;;;;;;;;;;;5107626;28;19928;-73
2023/10/11 10:27:33;;;;;;;;;;;;;;;;;;5107795;28;19915;-73
2023/10/11 10:29:59;;;;;;;;;;;;;;;;;;5106598;28;19920;-72
2023/10/11 10:32:25;;;;;;;;;;;;;;;;;;5105937;28;19922;-72
2023/10/11 10:34:54;;;;;;;;;;;;;;;;;;5107315;28;19920;-73
2023/10/11 10:37:20;;;;;;;;;;;;;;;;;;5105598;28;19924;-73
2023/10/11 10:39:48;;;;;;;;;;;;;;;;;;5107145;28;19964;-73
2023/10/11 10:42:15;;;;;;;;;;;;;;;;;;5106562;28;20027;-73
2023/10/11 10:44:40;;;;;;;;;;;;;;;;;;5107184;28;20445;-73
2023/10/11 10:47:06;;;;;;;;;;;;;;;;;;5107397;28;19916;-72
2023/10/11 10:49:31;;;;;;;;;;;;;;;;;;5107836;28;19926;-73
2023/10/11 10:51:57;;;;;;;;;;;;;;;;;;5106613;28;19922;-73
2023/10/11 10:54:23;;;;;;;;;;;;;;;;;;5108271;28;20379;-73
2023/10/11 10:56:48;;;;;;;;;;;;;;;;;;5107259;28;19924;-72
2023/10/11 10:59:14;;;;;;;;;;;;;;;;;;5108834;28;19931;-71
2023/10/11 11:01:39;;;;;;;;;;;;;;;;;;5109586;28;19916;-72
2023/10/11 11:04:08;;;;;;;;;;;;;;;;;;5108783;28;20480;-72
2023/10/11 11:06:33;;;;;;;;;;;;;;;;;;5108991;28;19911;-72
2023/10/11 11:09:00;;;;;;;;;;;;;;;;;;5108705;28;20060;-73
2023/10/11 11:11:26;;;;;;;;;;;;;;;;;;5108481;28;19922;-74
2023/10/11 11:13:51;;;;;;;;;;;;;;;;;;5109048;28;19912;-72
2023/10/11 11:16:16;;;;;;;;;;;;;;;;;;5108043;28;20091;-71
2023/10/11 11:18:43;;;;;;;;;;;;;;;;;;5106619;28;19915;-71
2023/10/11 11:21:17;;;;;;;;;;;;;;;;;;5104513;28;19930;-71
2023/10/11 11:23:44;;;;;;;;;;;;;;;;;;5088283;28;20524;-73
2023/10/11 11:26:15;;;;;;;;;;;;;;;;;;5093679;28;19918;-73
2023/10/11 11:28:40;;;;;;;;;;;;;;;;;;5108873;28;19916;-71
2023/10/11 11:31:10;;;;;;;;;;;;;;;;;;5108162;28;19915;-72
2023/10/11 11:33:38;;;;;;;;;;;;;;;;;;5099994;28;20420;-73
2023/10/11 11:36:11;;;;;;;;;;;;;;;;;;5107374;28;20314;-71
2023/10/11 11:38:37;;;;;;;;;;;;;;;;;;5108220;28;20283;-71
2023/10/11 11:41:05;;;;;;;;;;;;;;;;;;5107974;28;19916;-71
2023/10/11 11:43:30;;;;;;;;;;;;;;;;;;5108073;28;19923;-72
2023/10/11 11:46:01;;;;;;;;;;;;;;;;;;5108274;28;20366;-71
2023/10/11 11:48:27;;;;;;;;;;;;;;;;;;5108023;28;19949;-72
2023/10/11 11:50:56;;;;;;;;;;;;;;;;;;5108328;28;19915;-72
2023/10/11 11:53:21;;;;;;;;;;;;;;;;;;5110465;28;19920;-72
2023/10/11 11:55:47;;;;;;;;;;;;;;;;;;5111945;28;19956;-71
2023/10/11 11:58:16;;;;;;;;;;;;;;;;;;5111381;28;19912;-71
2023/10/11 12:00:45;;;;;;;;;;;;;;;;;;5112243;28;20275;-73
2023/10/11 12:03:11;;;;;;;;;;;;;;;;;;5112022;28;20310;-72
2023/10/11 12:05:42;;;;;;;;;;;;;;;;;;5112162;28;19924;-72
2023/10/11 12:08:08;;;;;;;;;;;;;;;;;;5112562;28;19922;-72
2023/10/11 12:10:33;;;;;;;;;;;;;;;;;;5111601;28;19916;-72
2023/10/11 12:13:05;;;;;;;;;;;;;;;;;;5111363;28;19915;-72
2023/10/11 12:15:30;;;;;;;;;;;;;;;;;;5111267;28;19927;-72
2023/10/11 12:17:56;;;;;;;;;;;;;;;;;;5111098;28;19915;-72
2023/10/11 12:20:33;;;;;;;;;;;;;;;;;;5110859;28;19918;-72
2023/10/11 12:23:07;;;;;;;;;;;;;;;;;;5111673;28;20261;-73
2023/10/11 12:25:33;;;;;;;;;;;;;;;;;;5111021;28;19959;-73
2023/10/11 12:28:01;;;;;;;;;;;;;;;;;;5111357;28;19914;-72
2023/10/11 12:30:26;;;;;;;;;;;;;;;;;;5111377;28;19959;-71
2023/10/11 12:32:52;;;;;;;;;;;;;;;;;;5111033;28;19955;-71
2023/10/11 12:35:17;;;;;;;;;;;;;;;;;;5110750;28;19955;-72
2023/10/11 12:37:43;;;;;;;;;;;;;;;;;;5111558;28;19965;-71
2023/10/11 12:40:12;;;;;;;;;;;;;;;;;;5111022;28;20002;-72
2023/10/11 12:42:38;;;;;;;;;;;;;;;;;;5108196;28;20434;-72
2023/10/11 12:45:07;;;;;;;;;;;;;;;;;;5109197;28;20018;-73
2023/10/11 12:47:33;;;;;;;;;;;;;;;;;;5105982;28;20267;-71
2023/10/11 12:50:00;;;;;;;;;;;;;;;;;;5088569;28;19927;-72
2023/10/11 12:52:30;;;;;;;;;;;;;;;;;;5109724;28;19920;-72
2023/10/11 12:54:55;;;;;;;;;;;;;;;;;;5108785;28;20022;-73
2023/10/11 12:57:21;;;;;;;;;;;;;;;;;;5109422;28;20007;-71
2023/10/11 12:59:46;;;;;;;;;;;;;;;;;;5091265;28;19947;-72
2023/10/11 13:02:20;;;;;;;;;;;;;;;;;;5109820;28;20256;-72
2023/10/11 13:04:47;;;;;;;;;;;;;;;;;;5108261;28;19947;-74
2023/10/11 13:07:13;;;;;;;;;;;;;;;;;;5109072;28;19965;-73
2023/10/11 13:09:40;;;;;;;;;;;;;;;;;;5109665;28;19919;-73
2023/10/11 13:12:05;;;;;;;;;;;;;;;;;;5091333;28;19941;-73
2023/10/11 13:14:33;;;;;;;;;;;;;;;;;;5109790;28;19911;-73
2023/10/11 13:16:58;;;;;;;;;;;;;;;;;;5109501;28;20394;-73
2023/10/11 13:19:26;;;;;;;;;;;;;;;;;;5108522;28;19965;-73
2023/10/11 13:21:55;;;;;;;;;;;;;;;;;;5089040;28;19962;-74
2023/10/11 13:24:23;;;;;;;;;;;;;;;;;;5090850;28;20323;-74
2023/10/11 13:26:49;;;;;;;;;;;;;;;;;;5089509;28;19916;-73
2023/10/11 13:29:18;;;;;;;;;;;;;;;;;;5072610;28;20019;-74
2023/10/11 13:31:43;;;;;;;;;;;;;;;;;;5090827;28;19919;-73
2023/10/11 13:34:09;;;;;;;;;;;;;;;;;;5090446;28;20315;-73
2023/10/11 13:36:34;;;;;;;;;;;;;;;;;;5072543;28;20002;-73
2023/10/11 13:39:00;;;;;;;;;;;;;;;;;;5090964;28;20015;-74
2023/10/11 13:41:30;;;;;;;;;;;;;;;;;;5090314;28;19916;-72
2023/10/11 13:43:56;;;;;;;;;;;;;;;;;;5090360;28;20010;-73
2023/10/11 13:46:22;;;;;;;;;;;;;;;;;;5090696;28;20007;-73
2023/10/11 13:48:53;;;;;;;;;;;;;;;;;;5089720;28;21556;-73
2023/10/11 13:51:18;;;;;;;;;;;;;;;;;;5090103;28;19920;-73
2023/10/11 13:53:44;;;;;;;;;;;;;;;;;;5089875;28;20268;-73
2023/10/11 13:56:10;;;;;;;;;;;;;;;;;;5071987;28;19958;-73
2023/10/11 13:58:36;;;;;;;;;;;;;;;;;;5090012;28;20190;-73
2023/10/11 14:01:01;;;;;;;;;;;;;;;;;;5090058;28;19912;-73
2023/10/11 14:06:12;;;;;;;;;;;;;;;;;;5089828;28;20368;-73
2023/10/11 14:08:44;;;;;;;;;;;;;;;;;;5089941;28;19927;-72
2023/10/11 14:11:09;;;;;;;;;;;;;;;;;;5090113;28;19969;-72
2023/10/11 14:13:34;;;;;;;;;;;;;;;;;;5089726;28;19916;-72
2023/10/11 14:16:04;;;;;;;;;;;;;;;;;;5089105;28;19928;-72
2023/10/11 14:18:32;;;;;;;;;;;;;;;;;;5089345;28;19916;-73
2023/10/11 14:20:57;;;;;;;;;;;;;;;;;;5089853;28;20480;-74
2023/10/11 14:23:27;;;;;;;;;;;;;;;;;;5090572;28;19935;-73
2023/10/11 14:26:00;;;;;;;;;;;;;;;;;;5074356;28;20394;-73
2023/10/11 14:28:26;;;;;;;;;;;;;;;;;;5090713;28;20372;-74
2023/10/11 14:30:51;;;;;;;;;;;;;;;;;;5090213;28;19916;-74
2023/10/11 14:33:18;;;;;;;;;;;;;;;;;;5089784;28;19959;-72
2023/10/11 14:35:43;;;;;;;;;;;;;;;;;;5089206;28;19916;-72
2023/10/11 14:38:09;;;;;;;;;;;;;;;;;;5089567;28;19969;-73
2023/10/11 14:40:35;;;;;;;;;;;;;;;;;;5089346;28;20007;-73
2023/10/11 14:43:00;;;;;;;;;;;;;;;;;;5089424;28;19916;-73
2023/10/11 14:45:26;;;;;;;;;;;;;;;;;;5090314;28;19935;-73
2023/10/11 14:47:52;;;;;;;;;;;;;;;;;;5089284;28;19916;-73
2023/10/11 14:50:22;;;;;;;;;;;;;;;;;;5089106;28;19923;-73
2023/10/11 14:52:48;;;;;;;;;;;;;;;;;;5089588;28;19936;-73
2023/10/11 14:55:16;;;;;;;;;;;;;;;;;;5089142;28;20022;-72
2023/10/11 14:57:42;;;;;;;;;;;;;;;;;;5089237;28;19942;-73
2023/10/11 15:00:15;;;;;;;;;;;;;;;;;;5088758;28;20292;-73
2023/10/11 15:02:43;;;;;;;;;;;;;;;;;;5088567;28;19928;-73
2023/10/11 15:05:08;;;;;;;;;;;;;;;;;;5088608;28;20291;-74
2023/10/11 15:07:33;;;;;;;;;;;;;;;;;;5089059;28;19920;-73
2023/10/11 15:09:59;;;;;;;;;;;;;;;;;;5088283;28;20474;-73
2023/10/11 15:12:24;;;;;;;;;;;;;;;;;;5089054;28;19916;-74
2023/10/11 15:14:50;;;;;;;;;;;;;;;;;;5088722;28;19916;-74
2023/10/11 15:17:18;;;;;;;;;;;;;;;;;;5071259;28;19916;-73
2023/10/11 15:19:45;;;;;;;;;;;;;;;;;;5089097;28;19912;-73
2023/10/11 15:22:13;;;;;;;;;;;;;;;;;;5088717;28;19916;-73
2023/10/11 15:24:39;;;;;;;;;;;;;;;;;;5088184;28;19928;-73
2023/10/11 15:27:05;;;;;;;;;;;;;;;;;;5088990;28;19916;-73
2023/10/11 15:29:30;;;;;;;;;;;;;;;;;;5088593;28;19920;-73
2023/10/11 15:31:56;;;;;;;;;;;;;;;;;;5088669;28;19927;-74
2023/10/11 15:34:21;;;;;;;;;;;;;;;;;;5069876;28;19973;-73
2023/10/11 15:36:47;;;;;;;;;;;;;;;;;;5088247;28;20387;-73
2023/10/11 15:39:12;;;;;;;;;;;;;;;;;;5070273;28;19916;-73
2023/10/11 15:41:38;;;;;;;;;;;;;;;;;;5069859;28;19920;-73
2023/10/11 15:44:03;;;;;;;;;;;;;;;;;;5087924;28;20417;-73
2023/10/11 15:46:28;;;;;;;;;;;;;;;;;;5087704;28;20037;-73
2023/10/11 15:48:55;;;;;;;;;;;;;;;;;;5088419;28;20272;-73
2023/10/11 15:51:21;;;;;;;;;;;;;;;;;;5088320;28;19916;-72
2023/10/11 15:53:46;;;;;;;;;;;;;;;;;;5088108;28;19946;-72
2023/10/11 15:56:13;;;;;;;;;;;;;;;;;;5088101;28;19939;-72
2023/10/11 15:58:38;;;;;;;;;;;;;;;;;;5087656;28;19919;-72
2023/10/11 16:01:03;;;;;;;;;;;;;;;;;;5086057;28;20007;-73
2023/10/11 16:03:29;;;;;;;;;;;;;;;;;;5068605;28;19916;-74
2023/10/11 16:05:57;;;;;;;;;;;;;;;;;;5087027;28;19916;-74
2023/10/11 16:08:24;;;;;;;;;;;;;;;;;;5066099;28;20287;-72
2023/10/11 16:10:49;;;;;;;;;;;;;;;;;;5051694;28;20258;-73
2023/10/11 16:13:14;;;;;;;;;;;;;;;;;;5085943;28;20424;-73
2023/10/11 16:15:41;;;;;;;;;;;;;;;;;;5086279;28;19963;-74
2023/10/11 16:18:09;;;;;;;;;;;;;;;;;;5087716;28;20018;-73
2023/10/11 16:20:34;;;;;;;;;;;;;;;;;;5086979;28;19923;-73
2023/10/11 16:22:59;;;;;;;;;;;;;;;;;;5086580;28;19916;-74
2023/10/11 16:25:25;;;;;;;;;;;;;;;;;;5088181;28;19920;-73
2023/10/11 16:27:50;;;;;;;;;;;;;;;;;;5085863;28;19923;-72
2023/10/11 16:30:16;;;;;;;;;;;;;;;;;;5087370;28;19962;-73
2023/10/11 16:32:41;;;;;;;;;;;;;;;;;;5086212;28;19946;-73
2023/10/11 16:35:13;;;;;;;;;;;;;;;;;;5086562;28;20433;-73
2023/10/11 16:37:40;;;;;;;;;;;;;;;;;;5085987;28;20367;-73
2023/10/11 16:40:06;;;;;;;;;;;;;;;;;;5068804;28;19961;-73
2023/10/11 16:42:34;;;;;;;;;;;;;;;;;;5088774;28;20551;-73
2023/10/11 16:44:59;;;;;;;;;;;;;;;;;;5089036;28;19931;-74
2023/10/11 16:47:24;;;;;;;;;;;;;;;;;;5069347;28;20290;-73
2023/10/11 16:49:51;;;;;;;;;;;;;;;;;;5089836;28;19923;-73
2023/10/11 16:52:17;;;;;;;;;;;;;;;;;;5090650;28;19939;-73
2023/10/11 16:54:42;;;;;;;;;;;;;;;;;;5090514;28;20363;-73
2023/10/11 16:57:07;;;;;;;;;;;;;;;;;;5090456;28;19920;-73
2023/10/11 16:59:33;;;;;;;;;;;;;;;;;;5090384;28;19920;-72
2023/10/11 17:01:58;;;;;;;;;;;;;;;;;;5090820;28;20462;-73
2023/10/11 17:04:27;;;;;;;;;;;;;;;;;;5072146;28;20325;-72
2023/10/11 17:06:53;;;;;;;;;;;;;;;;;;5090908;28;19969;-73
2023/10/11 17:09:19;;;;;;;;;;;;;;;;;;5090524;28;19977;-73
2023/10/11 17:11:44;;;;;;;;;;;;;;;;;;5090726;28;20375;-73
2023/10/11 17:14:10;;;;;;;;;;;;;;;;;;5091152;28;19916;-72
2023/10/11 17:16:36;;;;;;;;;;;;;;;;;;5089480;28;19924;-73
2023/10/11 17:19:02;;;;;;;;;;;;;;;;;;5089940;28;19969;-73
2023/10/11 17:21:28;;;;;;;;;;;;;;;;;;5070909;28;19920;-73
2023/10/11 17:23:53;;;;;;;;;;;;;;;;;;5090311;28;19916;-74